sensor_id;sensor_type;location;lat;lon;timestamp;pressure;altitude;pressure_sealevel;temperature;humidity
5812;BME280;2932;52.400;9.558;2022-10-28T00:01:15;101373.97;;;20.96;67.83
5812;BME280;2932;52.400;9.558;2022-10-28T00:03:43;101371.97;;;21.04;67.82
5812;BME280;2932;52.400;9.558;2022-10-28T00:06:12;101364.78;;;21.13;67.56
5812;BME280;2932;52.400;9.558;2022-10-28T00:08:37;101364.34;;;21.08;67.73
5812;BME280;2932;52.400;9.558;2022-10-28T00:11:07;101364.78;;;21.17;67.78
5812;BME280;2932;52.400;9.558;2022-10-28T00:13:33;101369.19;;;21.11;67.82
5812;BME280;2932;52.400;9.558;2022-10-28T00:16:21;101371.19;;;21.14;67.60
5812;BME280;2932;52.400;9.558;2022-10-28T00:18:47;101381.63;;;21.20;67.67
5812;BME280;2932;52.400;9.558;2022-10-28T00:21:16;101386.09;;;21.25;67.44
5812;BME280;2932;52.400;9.558;2022-10-28T00:23:42;101383.66;;;21.13;67.73
5812;BME280;2932;52.400;9.558;2022-10-28T00:26:17;101397.72;;;21.09;67.81
5812;BME280;2932;52.400;9.558;2022-10-28T00:28:45;101392.50;;;21.08;68.06
5812;BME280;2932;52.400;9.558;2022-10-28T00:31:12;101388.50;;;21.16;67.77
5812;BME280;2932;52.400;9.558;2022-10-28T00:33:37;101403.78;;;21.22;67.31
5812;BME280;2932;52.400;9.558;2022-10-28T00:36:19;101408.97;;;21.06;67.58
5812;BME280;2932;52.400;9.558;2022-10-28T00:38:48;101413.00;;;21.05;67.68
5812;BME280;2932;52.400;9.558;2022-10-28T00:41:18;101419.41;;;20.98;67.63
5812;BME280;2932;52.400;9.558;2022-10-28T00:43:49;101413.00;;;21.12;67.60
5812;BME280;2932;52.400;9.558;2022-10-28T00:48:54;101416.66;;;21.23;67.36
5812;BME280;2932;52.400;9.558;2022-10-28T00:51:22;101407.03;;;21.31;67.61
5812;BME280;2932;52.400;9.558;2022-10-28T00:53:50;101405.44;;;21.58;66.41
5812;BME280;2932;52.400;9.558;2022-10-28T00:56:18;101401.41;;;21.45;66.98
5812;BME280;2932;52.400;9.558;2022-10-28T00:58:45;101390.13;;;21.31;67.18
5812;BME280;2932;52.400;9.558;2022-10-28T01:01:12;101393.34;;;21.33;67.23
5812;BME280;2932;52.400;9.558;2022-10-28T01:03:37;101383.31;;;21.50;66.82
5812;BME280;2932;52.400;9.558;2022-10-28T01:06:03;101388.91;;;21.60;66.74
5812;BME280;2932;52.400;9.558;2022-10-28T01:08:29;101379.28;;;21.54;66.88
5812;BME280;2932;52.400;9.558;2022-10-28T01:16:59;101376.84;;;21.74;66.01
5812;BME280;2932;52.400;9.558;2022-10-28T01:22:23;101364.78;;;21.81;66.14
5812;BME280;2932;52.400;9.558;2022-10-28T01:30:24;101336.22;;;21.64;66.27
5812;BME280;2932;52.400;9.558;2022-10-28T01:32:57;101334.19;;;21.61;66.44
5812;BME280;2932;52.400;9.558;2022-10-28T01:35:50;101331.78;;;21.63;66.40
5812;BME280;2932;52.400;9.558;2022-10-28T01:47:13;101339.00;;;21.79;65.94
5812;BME280;2932;52.400;9.558;2022-10-28T01:52:20;101343.91;;;21.50;66.36
5812;BME280;2932;52.400;9.558;2022-10-28T01:54:49;101333.44;;;21.43;66.67
5812;BME280;2932;52.400;9.558;2022-10-28T01:57:17;101321.38;;;21.57;66.33
5812;BME280;2932;52.400;9.558;2022-10-28T01:59:44;101322.56;;;21.56;66.42
5812;BME280;2932;52.400;9.558;2022-10-28T02:02:14;101316.53;;;21.54;66.31
5812;BME280;2932;52.400;9.558;2022-10-28T02:04:39;101323.34;;;21.60;66.37
5812;BME280;2932;52.400;9.558;2022-10-28T02:07:05;101321.31;;;21.60;65.99
5812;BME280;2932;52.400;9.558;2022-10-28T02:09:47;101318.16;;;21.58;66.54
5812;BME280;2932;52.400;9.558;2022-10-28T02:12:22;101314.91;;;21.60;66.63
5812;BME280;2932;52.400;9.558;2022-10-28T02:20:20;101307.66;;;21.62;66.11
5812;BME280;2932;52.400;9.558;2022-10-28T02:23:45;101303.19;;;21.76;66.12
5812;BME280;2932;52.400;9.558;2022-10-28T02:31:39;101291.56;;;21.67;66.08
5812;BME280;2932;52.400;9.558;2022-10-28T02:33:59;101291.16;;;21.64;66.41
5812;BME280;2932;52.400;9.558;2022-10-28T02:36:29;101291.56;;;21.59;66.47
5812;BME280;2932;52.400;9.558;2022-10-28T02:38:57;101295.16;;;21.67;65.93
5812;BME280;2932;52.400;9.558;2022-10-28T02:41:28;101295.22;;;21.53;66.64
5812;BME280;2932;52.400;9.558;2022-10-28T02:43:58;101284.34;;;21.51;66.62
5812;BME280;2932;52.400;9.558;2022-10-28T02:46:28;101285.16;;;21.41;66.47
5812;BME280;2932;52.400;9.558;2022-10-28T02:49:04;101285.16;;;21.48;66.77
5812;BME280;2932;52.400;9.558;2022-10-28T02:51:42;101288.38;;;21.47;66.61
5812;BME280;2932;52.400;9.558;2022-10-28T02:54:12;101289.59;;;21.39;66.85
5812;BME280;2932;52.400;9.558;2022-10-28T02:59:23;101280.34;;;21.38;66.83
5812;BME280;2932;52.400;9.558;2022-10-28T03:01:50;101265.47;;;21.34;66.63
5812;BME280;2932;52.400;9.558;2022-10-28T03:04:15;101266.69;;;21.37;67.06
5812;BME280;2932;52.400;9.558;2022-10-28T03:06:40;101262.66;;;21.34;66.74
5812;BME280;2932;52.400;9.558;2022-10-28T03:09:06;101261.84;;;21.37;66.69
5812;BME280;2932;52.400;9.558;2022-10-28T03:11:31;101255.00;;;21.45;66.56
5812;BME280;2932;52.400;9.558;2022-10-28T03:13:56;101259.44;;;21.36;66.65
5812;BME280;2932;52.400;9.558;2022-10-28T03:16:22;101258.63;;;21.28;67.12
5812;BME280;2932;52.400;9.558;2022-10-28T03:18:48;101255.41;;;21.33;66.75
5812;BME280;2932;52.400;9.558;2022-10-28T03:21:13;101258.22;;;21.29;66.75
5812;BME280;2932;52.400;9.558;2022-10-28T03:23:38;101259.84;;;21.30;66.71
5812;BME280;2932;52.400;9.558;2022-10-28T03:26:04;101250.59;;;21.34;66.20
5812;BME280;2932;52.400;9.558;2022-10-28T03:28:29;101240.94;;;21.31;66.48
5812;BME280;2932;52.400;9.558;2022-10-28T03:30:54;101251.78;;;21.33;66.58
5812;BME280;2932;52.400;9.558;2022-10-28T03:33:20;101246.97;;;21.29;66.51
5812;BME280;2932;52.400;9.558;2022-10-28T03:35:45;101253.41;;;21.30;66.59
5812;BME280;2932;52.400;9.558;2022-10-28T03:38:10;101249.78;;;21.29;66.70
5812;BME280;2932;52.400;9.558;2022-10-28T03:40:36;101244.16;;;21.22;66.76
5812;BME280;2932;52.400;9.558;2022-10-28T03:43:01;101242.16;;;21.23;66.83
5812;BME280;2932;52.400;9.558;2022-10-28T03:45:26;101243.34;;;21.29;66.62
5812;BME280;2932;52.400;9.558;2022-10-28T03:47:52;101238.09;;;21.20;66.85
5812;BME280;2932;52.400;9.558;2022-10-28T03:50:17;101232.50;;;21.10;67.09
5812;BME280;2932;52.400;9.558;2022-10-28T03:52:42;101239.34;;;21.05;67.27
5812;BME280;2932;52.400;9.558;2022-10-28T03:55:10;101239.34;;;21.05;67.20
5812;BME280;2932;52.400;9.558;2022-10-28T03:57:36;101232.91;;;21.01;67.31
5812;BME280;2932;52.400;9.558;2022-10-28T04:00:02;101233.72;;;21.02;67.28
5812;BME280;2932;52.400;9.558;2022-10-28T04:02:27;101220.84;;;20.97;67.28
5812;BME280;2932;52.400;9.558;2022-10-28T04:04:52;101230.09;;;21.12;66.89
5812;BME280;2932;52.400;9.558;2022-10-28T04:07:18;101226.47;;;21.15;66.83
5812;BME280;2932;52.400;9.558;2022-10-28T04:09:43;101230.91;;;21.09;66.98
5812;BME280;2932;52.400;9.558;2022-10-28T04:12:09;101230.09;;;21.19;66.80
5812;BME280;2932;52.400;9.558;2022-10-28T04:14:35;101223.25;;;21.13;66.57
5812;BME280;2932;52.400;9.558;2022-10-28T04:17:00;101220.44;;;21.16;66.56
5812;BME280;2932;52.400;9.558;2022-10-28T04:19:26;101218.84;;;21.15;66.66
5812;BME280;2932;52.400;9.558;2022-10-28T04:21:51;101219.66;;;21.16;66.37
5812;BME280;2932;52.400;9.558;2022-10-28T04:24:16;101213.22;;;21.15;66.31
5812;BME280;2932;52.400;9.558;2022-10-28T04:26:42;101207.19;;;20.95;66.80
5812;BME280;2932;52.400;9.558;2022-10-28T04:29:07;101213.63;;;20.89;66.98
5812;BME280;2932;52.400;9.558;2022-10-28T04:31:32;101202.34;;;20.85;67.37
5812;BME280;2932;52.400;9.558;2022-10-28T04:33:58;101206.81;;;20.79;67.55
5812;BME280;2932;52.400;9.558;2022-10-28T04:36:23;101207.22;;;20.78;67.62
5812;BME280;2932;52.400;9.558;2022-10-28T04:38:48;101210.41;;;20.76;67.72
5812;BME280;2932;52.400;9.558;2022-10-28T04:41:16;101203.97;;;20.69;67.92
5812;BME280;2932;52.400;9.558;2022-10-28T04:43:42;101207.19;;;20.63;68.54
5812;BME280;2932;52.400;9.558;2022-10-28T04:46:07;101224.06;;;20.63;68.66
5812;BME280;2932;52.400;9.558;2022-10-28T04:48:33;101226.47;;;20.61;68.47
5812;BME280;2932;52.400;9.558;2022-10-28T04:50:58;101216.81;;;20.80;68.03
5812;BME280;2932;52.400;9.558;2022-10-28T04:53:23;101220.03;;;20.82;67.54
5812;BME280;2932;52.400;9.558;2022-10-28T04:55:49;101217.63;;;20.95;67.30
5812;BME280;2932;52.400;9.558;2022-10-28T04:58:14;101212.00;;;21.02;67.27
5812;BME280;2932;52.400;9.558;2022-10-28T05:00:40;101205.16;;;21.14;66.72
5812;BME280;2932;52.400;9.558;2022-10-28T05:03:05;101212.00;;;21.06;66.58
5812;BME280;2932;52.400;9.558;2022-10-28T05:05:31;101207.16;;;21.31;66.05
5812;BME280;2932;52.400;9.558;2022-10-28T05:07:56;101201.50;;;21.20;66.37
5812;BME280;2932;52.400;9.558;2022-10-28T05:10:21;101186.25;;;21.25;66.07
5812;BME280;2932;52.400;9.558;2022-10-28T05:12:47;101195.09;;;21.27;66.05
5812;BME280;2932;52.400;9.558;2022-10-28T05:15:13;101198.31;;;21.22;66.17
5812;BME280;2932;52.400;9.558;2022-10-28T05:17:39;101189.06;;;21.28;66.04
5812;BME280;2932;52.400;9.558;2022-10-28T05:20:06;101189.06;;;21.36;65.72
5812;BME280;2932;52.400;9.558;2022-10-28T05:22:32;101175.78;;;21.33;65.60
5812;BME280;2932;52.400;9.558;2022-10-28T05:24:57;101180.63;;;21.32;65.85
5812;BME280;2932;52.400;9.558;2022-10-28T05:27:22;101175.41;;;21.23;65.99
5812;BME280;2932;52.400;9.558;2022-10-28T05:29:48;101164.56;;;21.08;66.34
5812;BME280;2932;52.400;9.558;2022-10-28T05:32:13;101164.16;;;21.09;66.64
5812;BME280;2932;52.400;9.558;2022-10-28T05:34:38;101164.16;;;21.06;66.83
5812;BME280;2932;52.400;9.558;2022-10-28T05:37:04;101171.75;;;21.19;66.06
5812;BME280;2932;52.400;9.558;2022-10-28T05:39:29;101168.94;;;21.41;65.52
5812;BME280;2932;52.400;9.558;2022-10-28T05:41:54;101161.75;;;21.22;66.16
5812;BME280;2932;52.400;9.558;2022-10-28T05:44:20;101154.53;;;21.10;66.29
5812;BME280;2932;52.400;9.558;2022-10-28T05:46:45;101163.38;;;21.02;66.22
5812;BME280;2932;52.400;9.558;2022-10-28T05:49:10;101163.31;;;21.19;66.32
5812;BME280;2932;52.400;9.558;2022-10-28T05:51:35;101167.41;;;20.86;66.73
5812;BME280;2932;52.400;9.558;2022-10-28T05:54:01;101162.97;;;20.85;67.16
5812;BME280;2932;52.400;9.558;2022-10-28T05:56:26;101165.81;;;20.78;67.07
5812;BME280;2932;52.400;9.558;2022-10-28T05:58:51;101162.22;;;20.74;67.35
5812;BME280;2932;52.400;9.558;2022-10-28T06:01:17;101162.22;;;20.71;66.83
5812;BME280;2932;52.400;9.558;2022-10-28T06:03:42;101154.56;;;20.78;65.97
5812;BME280;2932;52.400;9.558;2022-10-28T06:06:07;101147.69;;;20.97;64.95
5812;BME280;2932;52.400;9.558;2022-10-28T06:08:33;101160.13;;;21.24;64.22
5812;BME280;2932;52.400;9.558;2022-10-28T06:10:58;101159.66;;;21.47;63.81
5812;BME280;2932;52.400;9.558;2022-10-28T06:13:23;101152.41;;;21.57;63.23
5812;BME280;2932;52.400;9.558;2022-10-28T06:15:53;101160.38;;;21.66;63.18
5812;BME280;2932;52.400;9.558;2022-10-28T06:18:20;101154.31;;;21.74;62.90
5812;BME280;2932;52.400;9.558;2022-10-28T06:20:55;101157.13;;;21.78;62.61
5812;BME280;2932;52.400;9.558;2022-10-28T06:23:22;101169.50;;;22.02;62.27
5812;BME280;2932;52.400;9.558;2022-10-28T06:25:47;101173.13;;;22.02;62.33
5812;BME280;2932;52.400;9.558;2022-10-28T06:28:13;101165.94;;;21.87;62.42
5812;BME280;2932;52.400;9.558;2022-10-28T06:30:38;101173.97;;;21.92;62.63
5812;BME280;2932;52.400;9.558;2022-10-28T06:33:04;101175.59;;;21.86;62.65
5812;BME280;2932;52.400;9.558;2022-10-28T06:35:29;101185.28;;;21.78;63.21
5812;BME280;2932;52.400;9.558;2022-10-28T06:37:55;101184.88;;;21.79;63.54
5812;BME280;2932;52.400;9.558;2022-10-28T06:40:22;101184.09;;;21.72;63.86
5812;BME280;2932;52.400;9.558;2022-10-28T06:42:47;101196.53;;;21.85;63.46
5812;BME280;2932;52.400;9.558;2022-10-28T06:45:13;101194.13;;;21.83;63.48
5812;BME280;2932;52.400;9.558;2022-10-28T06:47:38;101198.94;;;21.90;63.41
5812;BME280;2932;52.400;9.558;2022-10-28T06:50:04;101197.69;;;21.98;63.18
5812;BME280;2932;52.400;9.558;2022-10-28T06:52:29;101202.53;;;21.94;63.40
5812;BME280;2932;52.400;9.558;2022-10-28T06:54:54;101201.28;;;22.02;63.26
5812;BME280;2932;52.400;9.558;2022-10-28T06:57:20;101193.25;;;21.97;63.45
5812;BME280;2932;52.400;9.558;2022-10-28T06:59:45;101213.38;;;21.99;63.35
5812;BME280;2932;52.400;9.558;2022-10-28T07:02:11;101195.34;;;21.75;63.93
5812;BME280;2932;52.400;9.558;2022-10-28T07:04:36;101204.94;;;21.99;63.74
5812;BME280;2932;52.400;9.558;2022-10-28T07:07:02;101204.97;;;21.88;64.16
5812;BME280;2932;52.400;9.558;2022-10-28T07:09:27;101211.81;;;21.91;63.89
5812;BME280;2932;52.400;9.558;2022-10-28T07:11:53;101215.75;;;22.11;63.47
5812;BME280;2932;52.400;9.558;2022-10-28T07:14:18;101219.00;;;22.03;63.67
5812;BME280;2932;52.400;9.558;2022-10-28T07:16:43;101210.91;;;22.12;63.59
5812;BME280;2932;52.400;9.558;2022-10-28T07:19:09;101220.53;;;22.21;63.36
5812;BME280;2932;52.400;9.558;2022-10-28T07:21:34;101214.13;;;22.10;63.52
5812;BME280;2932;52.400;9.558;2022-10-28T07:24:00;101209.69;;;22.16;63.69
5812;BME280;2932;52.400;9.558;2022-10-28T07:26:26;101213.72;;;22.12;63.61
5812;BME280;2932;52.400;9.558;2022-10-28T07:28:53;101204.81;;;22.24;63.36
5812;BME280;2932;52.400;9.558;2022-10-28T07:31:18;101206.75;;;22.34;63.52
5812;BME280;2932;52.400;9.558;2022-10-28T07:33:44;101205.75;;;22.62;62.88
5812;BME280;2932;52.400;9.558;2022-10-28T07:36:10;101206.00;;;22.26;63.26
5812;BME280;2932;52.400;9.558;2022-10-28T07:38:35;101205.25;;;22.15;63.62
5812;BME280;2932;52.400;9.558;2022-10-28T07:41:05;101201.69;;;22.04;63.69
5812;BME280;2932;52.400;9.558;2022-10-28T07:43:34;101202.84;;;22.14;63.80
5812;BME280;2932;52.400;9.558;2022-10-28T07:45:59;101210.72;;;22.44;63.33
5812;BME280;2932;52.400;9.558;2022-10-28T07:48:25;101215.25;;;22.31;62.96
5812;BME280;2932;52.400;9.558;2022-10-28T07:50:50;101216.03;;;22.90;62.03
5812;BME280;2932;52.400;9.558;2022-10-28T07:53:15;101209.56;;;22.93;61.95
5812;BME280;2932;52.400;9.558;2022-10-28T07:55:41;101220.78;;;23.00;61.71
5812;BME280;2932;52.400;9.558;2022-10-28T07:58:06;101218.34;;;23.02;61.99
5812;BME280;2932;52.400;9.558;2022-10-28T08:00:31;101236.97;;;22.92;62.07
5812;BME280;2932;52.400;9.558;2022-10-28T08:02:56;101234.53;;;22.94;62.14
5812;BME280;2932;52.400;9.558;2022-10-28T08:05:22;101223.69;;;22.89;62.41
5812;BME280;2932;52.400;9.558;2022-10-28T08:07:47;101236.22;;;23.29;61.19
5812;BME280;2932;52.400;9.558;2022-10-28T08:10:12;101226.16;;;22.84;62.10
5812;BME280;2932;52.400;9.558;2022-10-28T08:12:38;101227.50;;;23.17;61.50
5812;BME280;2932;52.400;9.558;2022-10-28T08:15:04;101216.06;;;23.27;60.95
5812;BME280;2932;52.400;9.558;2022-10-28T08:17:29;101217.69;;;23.28;61.26
5812;BME280;2932;52.400;9.558;2022-10-28T08:19:55;101210.94;;;23.19;61.17
5812;BME280;2932;52.400;9.558;2022-10-28T08:22:20;101216.22;;;23.13;61.42
5812;BME280;2932;52.400;9.558;2022-10-28T08:24:45;101218.88;;;23.31;61.53
5812;BME280;2932;52.400;9.558;2022-10-28T08:27:10;101224.00;;;23.43;61.16
5812;BME280;2932;52.400;9.558;2022-10-28T08:29:36;101226.22;;;23.21;61.38
5812;BME280;2932;52.400;9.558;2022-10-28T08:32:01;101223.25;;;23.36;61.05
5812;BME280;2932;52.400;9.558;2022-10-28T08:34:27;101219.63;;;23.35;61.02
5812;BME280;2932;52.400;9.558;2022-10-28T08:36:54;101218.63;;;23.15;61.47
5812;BME280;2932;52.400;9.558;2022-10-28T08:39:20;101227.69;;;23.37;60.77
5812;BME280;2932;52.400;9.558;2022-10-28T08:41:46;101231.91;;;23.18;61.21
5812;BME280;2932;52.400;9.558;2022-10-28T08:44:32;101226.16;;;23.28;60.97
5812;BME280;2932;52.400;9.558;2022-10-28T08:47:22;101224.38;;;23.45;60.72
5812;BME280;2932;52.400;9.558;2022-10-28T08:50:01;101227.16;;;23.49;60.83
5812;BME280;2932;52.400;9.558;2022-10-28T08:52:42;101228.97;;;23.28;60.97
5812;BME280;2932;52.400;9.558;2022-10-28T08:55:16;101227.00;;;23.22;61.84
5812;BME280;2932;52.400;9.558;2022-10-28T08:57:48;101227.44;;;23.61;60.67
5812;BME280;2932;52.400;9.558;2022-10-28T09:00:20;101227.34;;;24.03;59.75
5812;BME280;2932;52.400;9.558;2022-10-28T09:02:56;101217.13;;;24.12;59.47
5812;BME280;2932;52.400;9.558;2022-10-28T09:05:24;101216.97;;;24.23;59.07
5812;BME280;2932;52.400;9.558;2022-10-28T09:07:51;101217.16;;;24.39;58.59
5812;BME280;2932;52.400;9.558;2022-10-28T09:10:32;101219.25;;;24.35;58.84
5812;BME280;2932;52.400;9.558;2022-10-28T09:16:02;101222.94;;;24.32;59.06
5812;BME280;2932;52.400;9.558;2022-10-28T09:23:56;101216.88;;;24.57;57.91
5812;BME280;2932;52.400;9.558;2022-10-28T09:26:36;101224.16;;;24.81;58.27
5812;BME280;2932;52.400;9.558;2022-10-28T09:34:53;101220.91;;;25.53;56.12
5812;BME280;2932;52.400;9.558;2022-10-28T09:40:00;101230.34;;;25.46;56.22
5812;BME280;2932;52.400;9.558;2022-10-28T09:42:34;101221.84;;;25.46;55.97
5812;BME280;2932;52.400;9.558;2022-10-28T09:45:18;101222.66;;;25.67;56.44
5812;BME280;2932;52.400;9.558;2022-10-28T09:47:53;101221.53;;;25.84;55.55
5812;BME280;2932;52.400;9.558;2022-10-28T09:50:23;101220.31;;;26.01;55.21
5812;BME280;2932;52.400;9.558;2022-10-28T09:52:59;101217.69;;;26.30;54.69
5812;BME280;2932;52.400;9.558;2022-10-28T09:55:27;101219.75;;;26.46;53.87
5812;BME280;2932;52.400;9.558;2022-10-28T09:57:53;101220.03;;;26.51;54.33
5812;BME280;2932;52.400;9.558;2022-10-28T10:00:19;101211.53;;;26.68;53.76
5812;BME280;2932;52.400;9.558;2022-10-28T10:02:44;101218.47;;;26.99;53.53
5812;BME280;2932;52.400;9.558;2022-10-28T10:05:15;101204.50;;;27.21;52.80
5812;BME280;2932;52.400;9.558;2022-10-28T10:07:54;101209.59;;;27.42;52.19
5812;BME280;2932;52.400;9.558;2022-10-28T10:10:26;101209.50;;;27.46;52.19
5812;BME280;2932;52.400;9.558;2022-10-28T10:12:56;101210.41;;;27.72;52.43
5812;BME280;2932;52.400;9.558;2022-10-28T10:15:36;101208.75;;;27.87;52.23
5812;BME280;2932;52.400;9.558;2022-10-28T10:18:05;101202.41;;;27.96;51.60
5812;BME280;2932;52.400;9.558;2022-10-28T10:20:50;101201.63;;;27.95;51.39
5812;BME280;2932;52.400;9.558;2022-10-28T10:26:11;101195.19;;;28.33;50.67
5812;BME280;2932;52.400;9.558;2022-10-28T10:28:46;101197.91;;;28.49;50.59
5812;BME280;2932;52.400;9.558;2022-10-28T10:31:26;101194.16;;;28.39;50.50
5812;BME280;2932;52.400;9.558;2022-10-28T10:33:53;101197.00;;;28.27;49.90
5812;BME280;2932;52.400;9.558;2022-10-28T10:36:21;101206.47;;;28.24;49.45
5812;BME280;2932;52.400;9.558;2022-10-28T10:38:58;101199.28;;;27.77;50.06
5812;BME280;2932;52.400;9.558;2022-10-28T10:41:52;101204.34;;;28.11;49.21
5812;BME280;2932;52.400;9.558;2022-10-28T10:49:34;101201.88;;;27.72;50.46
5812;BME280;2932;52.400;9.558;2022-10-28T10:52:26;101193.53;;;27.94;49.74
5812;BME280;2932;52.400;9.558;2022-10-28T10:55:02;101199.91;;;27.56;50.66
5812;BME280;2932;52.400;9.558;2022-10-28T10:57:29;101193.97;;;27.50;50.95
5812;BME280;2932;52.400;9.558;2022-10-28T10:59:56;101187.00;;;27.80;50.14
5812;BME280;2932;52.400;9.558;2022-10-28T11:02:30;101186.81;;;28.00;50.43
5812;BME280;2932;52.400;9.558;2022-10-28T11:05:03;101184.59;;;28.59;49.10
5812;BME280;2932;52.400;9.558;2022-10-28T11:07:31;101182.03;;;28.99;48.34
5812;BME280;2932;52.400;9.558;2022-10-28T11:09:57;101176.59;;;28.66;48.76
5812;BME280;2932;52.400;9.558;2022-10-28T11:12:34;101171.19;;;29.06;48.70
5812;BME280;2932;52.400;9.558;2022-10-28T11:15:29;101163.56;;;30.12;46.91
5812;BME280;2932;52.400;9.558;2022-10-28T11:20:26;101164.69;;;30.55;46.29
5812;BME280;2932;52.400;9.558;2022-10-28T11:25:38;101154.16;;;30.92;45.31
5812;BME280;2932;52.400;9.558;2022-10-28T11:33:49;101158.66;;;32.51;43.08
5812;BME280;2932;52.400;9.558;2022-10-28T11:36:39;101153.56;;;33.02;41.87
5812;BME280;2932;52.400;9.558;2022-10-28T11:45:05;101147.84;;;34.29;40.67
5812;BME280;2932;52.400;9.558;2022-10-28T11:55:39;101139.44;;;33.67;40.84
5812;BME280;2932;52.400;9.558;2022-10-28T12:16:55;101137.47;;;33.43;42.01
5812;BME280;2932;52.400;9.558;2022-10-28T12:19:28;101123.44;;;32.59;42.75
5812;BME280;2932;52.400;9.558;2022-10-28T12:22:12;101129.53;;;33.00;42.57
5812;BME280;2932;52.400;9.558;2022-10-28T12:24:40;101126.75;;;32.91;42.64
5812;BME280;2932;52.400;9.558;2022-10-28T12:27:21;101133.84;;;32.05;43.51
5812;BME280;2932;52.400;9.558;2022-10-28T12:29:50;101145.59;;;31.10;44.84
5812;BME280;2932;52.400;9.558;2022-10-28T12:32:21;101144.19;;;30.38;46.25
5812;BME280;2932;52.400;9.558;2022-10-28T12:35:12;101142.44;;;30.50;45.53
5812;BME280;2932;52.400;9.558;2022-10-28T12:38:01;101138.28;;;30.42;45.85
5812;BME280;2932;52.400;9.558;2022-10-28T12:40:38;101133.03;;;30.90;45.44
5812;BME280;2932;52.400;9.558;2022-10-28T12:43:13;101130.00;;;31.75;43.92
5812;BME280;2932;52.400;9.558;2022-10-28T12:45:41;101117.75;;;32.98;42.35
5812;BME280;2932;52.400;9.558;2022-10-28T12:48:16;101118.50;;;33.22;42.21
5812;BME280;2932;52.400;9.558;2022-10-28T12:50:54;101120.69;;;32.65;42.84
5812;BME280;2932;52.400;9.558;2022-10-28T12:53:38;101109.69;;;33.50;41.86
5812;BME280;2932;52.400;9.558;2022-10-28T12:56:15;101098.91;;;34.38;41.07
5812;BME280;2932;52.400;9.558;2022-10-28T12:59:19;101107.13;;;33.13;41.83
5812;BME280;2932;52.400;9.558;2022-10-28T13:01:49;101104.66;;;32.58;42.65
5812;BME280;2932;52.400;9.558;2022-10-28T13:04:15;101108.13;;;32.86;42.57
5812;BME280;2932;52.400;9.558;2022-10-28T13:28:30;101115.09;;;30.89;45.73
5812;BME280;2932;52.400;9.558;2022-10-28T13:30:59;101105.63;;;30.43;46.35
5812;BME280;2932;52.400;9.558;2022-10-28T13:33:27;101108.41;;;30.15;46.88
5812;BME280;2932;52.400;9.558;2022-10-28T13:36:05;101106.00;;;30.14;47.12
5812;BME280;2932;52.400;9.558;2022-10-28T13:38:32;101094.59;;;30.14;47.36
5812;BME280;2932;52.400;9.558;2022-10-28T13:52:03;101089.13;;;29.23;48.82
5812;BME280;2932;52.400;9.558;2022-10-28T13:57:12;101097.06;;;28.37;50.11
5812;BME280;2932;52.400;9.558;2022-10-28T13:59:48;101092.38;;;28.31;50.58
5812;BME280;2932;52.400;9.558;2022-10-28T14:02:20;101090.53;;;28.11;51.10
5812;BME280;2932;52.400;9.558;2022-10-28T14:04:54;101086.09;;;28.10;50.63
5812;BME280;2932;52.400;9.558;2022-10-28T14:07:23;101094.41;;;28.05;50.75
5812;BME280;2932;52.400;9.558;2022-10-28T14:09:55;101100.22;;;28.01;51.28
5812;BME280;2932;52.400;9.558;2022-10-28T14:12:30;101093.28;;;27.77;51.84
5812;BME280;2932;52.400;9.558;2022-10-28T14:14:59;101092.88;;;27.49;52.04
5812;BME280;2932;52.400;9.558;2022-10-28T14:17:32;101093.59;;;27.24;52.66
5812;BME280;2932;52.400;9.558;2022-10-28T14:19:59;101084.63;;;27.26;52.94
5812;BME280;2932;52.400;9.558;2022-10-28T14:22:31;101080.13;;;27.41;52.62
5812;BME280;2932;52.400;9.558;2022-10-28T14:24:57;101089.22;;;27.49;52.68
5812;BME280;2932;52.400;9.558;2022-10-28T14:27:38;101087.97;;;27.50;52.69
5812;BME280;2932;52.400;9.558;2022-10-28T14:30:17;101079.84;;;27.65;52.40
5812;BME280;2932;52.400;9.558;2022-10-28T14:32:54;101085.59;;;27.48;52.94
5812;BME280;2932;52.400;9.558;2022-10-28T14:35:25;101082.94;;;27.41;52.48
5812;BME280;2932;52.400;9.558;2022-10-28T14:40:32;101084.09;;;27.02;53.47
5812;BME280;2932;52.400;9.558;2022-10-28T14:48:44;101081.22;;;27.31;53.36
5812;BME280;2932;52.400;9.558;2022-10-28T14:51:14;101079.81;;;27.23;53.77
5812;BME280;2932;52.400;9.558;2022-10-28T14:53:41;101082.44;;;27.17;53.69
5812;BME280;2932;52.400;9.558;2022-10-28T14:56:27;101079.47;;;27.08;53.76
5812;BME280;2932;52.400;9.558;2022-10-28T14:59:20;101075.22;;;27.00;54.35
5812;BME280;2932;52.400;9.558;2022-10-28T15:02:16;101075.22;;;26.84;54.73
5812;BME280;2932;52.400;9.558;2022-10-28T15:04:44;101074.06;;;26.81;54.56
5812;BME280;2932;52.400;9.558;2022-10-28T15:07:13;101081.66;;;26.72;54.86
5812;BME280;2932;52.400;9.558;2022-10-28T15:09:40;101084.22;;;26.66;54.86
5812;BME280;2932;52.400;9.558;2022-10-28T15:12:10;101085.81;;;26.67;54.60
5812;BME280;2932;52.400;9.558;2022-10-28T15:14:44;101076.16;;;26.65;54.47
5812;BME280;2932;52.400;9.558;2022-10-28T15:17:12;101070.75;;;26.70;54.84
5812;BME280;2932;52.400;9.558;2022-10-28T15:19:38;101063.91;;;26.68;54.80
5812;BME280;2932;52.400;9.558;2022-10-28T15:22:26;101075.91;;;26.59;54.80
5812;BME280;2932;52.400;9.558;2022-10-28T15:25:04;101072.88;;;26.50;54.98
5812;BME280;2932;52.400;9.558;2022-10-28T15:27:35;101073.34;;;26.48;55.23
5812;BME280;2932;52.400;9.558;2022-10-28T15:30:03;101069.78;;;26.44;55.47
5812;BME280;2932;52.400;9.558;2022-10-28T15:32:31;101071.59;;;26.38;55.62
5812;BME280;2932;52.400;9.558;2022-10-28T15:34:57;101072.84;;;26.37;55.76
5812;BME280;2932;52.400;9.558;2022-10-28T15:37:26;101076.63;;;26.31;55.79
5812;BME280;2932;52.400;9.558;2022-10-28T15:40:09;101073.59;;;26.21;55.99
5812;BME280;2932;52.400;9.558;2022-10-28T15:42:39;101079.34;;;26.18;56.20
5812;BME280;2932;52.400;9.558;2022-10-28T15:45:10;101070.28;;;26.07;55.94
5812;BME280;2932;52.400;9.558;2022-10-28T15:47:39;101059.03;;;26.03;56.31
5812;BME280;2932;52.400;9.558;2022-10-28T15:52:40;101065.41;;;25.91;56.82
5812;BME280;2932;52.400;9.558;2022-10-28T15:57:52;101065.41;;;25.55;56.81
5812;BME280;2932;52.400;9.558;2022-10-28T16:02:51;101076.31;;;25.37;57.17
5812;BME280;2932;52.400;9.558;2022-10-28T16:07:57;101069.94;;;25.13;57.27